This is the latest recevied weather packets stored in our database for station/object DO6MJ-1. If no packets are shown the sender has not sent any weather packets the latest 1 day(s).
| Time | Temp. | Humidity | Pressure | Rain* | Wind** | Luminosity | Snow |
|---|---|---|---|---|---|---|---|
| 1777989788 | 13.89° C | 86% | 1002.1 hPa | 0 mm | 0.45 m/s, 45° | - | - |
| 1777988588 | 13.89° C | 87% | 1002.3 hPa | 0 mm | 0 m/s | - | - |
| 1777987388 | 13.89° C | 87% | 1002.4 hPa | 0 mm | 0 m/s | - | - |
| 1777986188 | 13.89° C | 89% | 1002.7 hPa | 0 mm | 0 m/s | - | - |
| 1777984987 | 13.89° C | 89% | 1002.8 hPa | 0 mm | 0 m/s | - | - |
| 1777983787 | 14.44° C | 89% | 1002.6 hPa | 0 mm | 0 m/s | - | - |
| 1777982587 | 15° C | 90% | 1002.4 hPa | 0 mm | 0 m/s | - | - |
| 1777981386 | 14.44° C | 93% | 1002.4 hPa | 0.51 mm | 0 m/s | - | - |
| 1777980186 | 12.78° C | 93% | 1002.7 hPa | 0.51 mm | 0 m/s | - | - |
| 1777978986 | 12.78° C | 93% | 1002.7 hPa | 0.51 mm | 0 m/s | - | - |
| 1777977786 | 12.78° C | 93% | 1002.9 hPa | 0 mm | 0 m/s | - | - |
| 1777976585 | 12.78° C | 93% | 1002.8 hPa | 0 mm | 0 m/s | - | - |
| 1777975385 | 12.78° C | 93% | 1003 hPa | 0 mm | 0 m/s | - | - |
| 1777974185 | 13.33° C | 93% | 1003 hPa | 0 mm | 0 m/s | - | - |
| 1777972984 | 13.33° C | 93% | 1002.9 hPa | 0.51 mm | 0 m/s | - | - |
| 1777971784 | 13.89° C | 93% | 1002.8 hPa | 1.52 mm | 0 m/s | - | - |
| 1777970584 | 13.33° C | 93% | 1002.8 hPa | 1.52 mm | 0 m/s | - | - |
| 1777969384 | 12.78° C | 93% | 1003 hPa | 1.52 mm | 0 m/s | - | - |
| 1777968183 | 12.78° C | 93% | 1003 hPa | 0.51 mm | 0 m/s | - | - |
| 1777966983 | 13.33° C | 93% | 1002.8 hPa | 1.02 mm | 0 m/s | - | - |
| 1777965783 | 13.33° C | 93% | 1002.8 hPa | 0.51 mm | 0.45 m/s, 338° | - | - |
| 1777964582 | 13.33° C | 93% | 1002.8 hPa | 0.51 mm | 0 m/s | - | - |
| 1777963382 | 13.33° C | 92% | 1002.8 hPa | 0 mm | 0 m/s | - | - |
| 1777962182 | 13.33° C | 92% | 1002.9 hPa | 0 mm | 0 m/s | - | - |
| 1777960982 | 13.33° C | 92% | 1002.9 hPa | 0.51 mm | 0 m/s | - | - |
* Rain latest hour (hover to see other rain measurements)
** Current wind speed in m/s (hover to see current wind gust speed)